Time;durP1;ratioP1;P1;durP2;ratioP2;P2;SDS_P1;SDS_P2;PMS_P1;PMS_P2;Temp;Humidity;BMP_temperature;BMP_pressure;BME280_temperature;BME280_humidity;BME280_pressure;Samples;Min_cycle;Max_cycle;Signal;HPM_P1;HPM_P2
2023/03/16 00:00:36;;;;;;;25.37;11.20;;;0.60;87.30;;;;;;4938107;29;20183;-90
2023/03/16 00:03:02;;;;;;;12.30;9.97;;;0.50;87.60;;;;;;4938056;29;20207;-90
2023/03/16 00:05:28;;;;;;;15.43;10.43;;;0.50;87.70;;;;;;4938145;29;20677;-90
2023/03/16 00:07:54;;;;;;;17.33;10.13;;;0.50;87.90;;;;;;4937986;29;20183;-89
2023/03/16 00:10:26;;;;;;;20.20;10.37;;;0.50;88.20;;;;;;4938153;29;20206;-90
2023/03/16 00:12:55;;;;;;;21.30;10.00;;;0.40;88.30;;;;;;4938123;29;20174;-89
2023/03/16 00:15:21;;;;;;;31.73;11.10;;;0.30;88.40;;;;;;4937986;29;20579;-89
2023/03/16 00:17:49;;;;;;;28.40;10.67;;;0.30;88.60;;;;;;4937985;29;20258;-89
2023/03/16 00:20:17;;;;;;;15.60;10.87;;;0.20;88.60;;;;;;4937924;29;20182;-89
2023/03/16 00:22:43;;;;;;;15.47;10.47;;;0.10;88.90;;;;;;4933845;28;20619;-89
2023/03/16 00:25:13;;;;;;;18.67;9.50;;;0.10;89.40;;;;;;4957016;28;20244;-89
2023/03/16 00:27:40;;;;;;;14.53;9.37;;;0.10;89.50;;;;;;4957925;28;20577;-89
2023/03/16 00:30:06;;;;;;;19.13;9.97;;;0.00;89.60;;;;;;4957001;28;20660;-90
2023/03/16 00:32:34;;;;;;;21.60;10.23;;;0.00;89.70;;;;;;4957022;28;20181;-90
2023/03/16 00:35:01;;;;;;;23.27;9.87;;;0.00;89.70;;;;;;4956900;28;20201;-90
2023/03/16 00:37:28;;;;;;;19.77;9.40;;;0.00;89.80;;;;;;4957190;28;20211;-89
2023/03/16 00:39:55;;;;;;;20.77;10.53;;;0.00;89.80;;;;;;4957866;28;20186;-90
2023/03/16 00:42:26;;;;;;;15.57;10.60;;;0.00;89.80;;;;;;4957679;28;20216;-89
2023/03/16 00:44:56;;;;;;;19.77;10.07;;;0.00;89.80;;;;;;4956985;28;20223;-89
2023/03/16 00:47:23;;;;;;;19.37;11.27;;;0.10;89.80;;;;;;4957160;28;20175;-90
2023/03/16 00:49:49;;;;;;;14.87;9.90;;;0.10;89.70;;;;;;4956832;28;20244;-89
2023/03/16 00:52:15;;;;;;;18.70;9.93;;;0.10;89.80;;;;;;4956924;28;20220;-90
2023/03/16 00:54:43;;;;;;;21.87;10.10;;;0.00;89.60;;;;;;4960896;28;20200;-89
2023/03/16 00:57:10;;;;;;;18.50;9.73;;;0.00;89.60;;;;;;4960887;28;20233;-90
2023/03/16 00:59:37;;;;;;;19.30;9.20;;;0.00;89.50;;;;;;4960805;28;20186;-90
2023/03/16 01:02:04;;;;;;;13.83;10.07;;;0.00;89.50;;;;;;4960611;28;20203;-89
2023/03/16 01:04:31;;;;;;;20.50;10.27;;;0.10;89.40;;;;;;4960523;28;20285;-89
2023/03/16 01:06:57;;;;;;;24.23;10.60;;;0.10;89.30;;;;;;4960611;28;20206;-89
2023/03/16 01:09:22;;;;;;;16.83;11.40;;;0.00;89.20;;;;;;4960216;28;20208;-89
2023/03/16 01:11:52;;;;;;;18.93;11.27;;;0.00;89.10;;;;;;4960526;28;20185;-89
2023/03/16 01:14:18;;;;;;;13.67;9.57;;;0.00;89.10;;;;;;4960072;28;20286;-90
2023/03/16 01:16:44;;;;;;;14.80;9.93;;;-0.10;89.00;;;;;;4960744;28;20183;-90
2023/03/16 01:19:14;;;;;;;13.63;11.10;;;-0.20;89.10;;;;;;4960294;28;20220;-89
2023/03/16 01:21:42;;;;;;;17.67;10.90;;;-0.20;89.10;;;;;;4960501;28;20237;-89
2023/03/16 01:24:08;;;;;;;20.07;10.93;;;-0.10;89.20;;;;;;4960321;28;20217;-89
2023/03/16 01:26:35;;;;;;;14.63;10.67;;;-0.10;89.20;;;;;;4959924;28;20208;-89
2023/03/16 01:29:01;;;;;;;17.20;10.83;;;0.00;89.20;;;;;;4959862;28;20209;-90
2023/03/16 01:31:28;;;;;;;17.33;11.10;;;0.00;89.10;;;;;;4959872;28;20214;-90
2023/03/16 01:33:54;;;;;;;13.43;10.90;;;0.00;89.10;;;;;;4960477;28;20205;-90
2023/03/16 01:36:20;;;;;;;18.10;11.93;;;0.00;89.10;;;;;;4960931;28;20186;-89
2023/03/16 01:38:45;;;;;;;25.97;11.97;;;0.00;89.00;;;;;;4959826;28;20188;-88
2023/03/16 01:41:12;;;;;;;15.83;10.63;;;0.00;88.90;;;;;;4959643;28;20206;-89
2023/03/16 01:43:39;;;;;;;17.30;11.43;;;0.00;88.90;;;;;;4959687;28;20320;-89
2023/03/16 01:46:04;;;;;;;21.03;12.30;;;0.00;88.90;;;;;;4959706;28;20177;-89
2023/03/16 01:48:42;;;;;;;15.93;11.00;;;0.00;88.90;;;;;;4959670;28;20632;-89
2023/03/16 01:51:19;;;;;;;12.87;10.97;;;-0.10;88.90;;;;;;4959622;28;20189;-89
2023/03/16 01:53:47;;;;;;;20.57;11.50;;;-0.10;88.90;;;;;;4960275;28;20581;-89
2023/03/16 01:56:17;;;;;;;20.90;12.33;;;-0.10;89.00;;;;;;4959541;28;20196;-89
2023/03/16 01:58:44;;;;;;;25.07;11.50;;;-0.10;89.00;;;;;;4959382;28;20185;-89
2023/03/16 02:01:11;;;;;;;14.77;11.83;;;-0.10;89.10;;;;;;4959231;28;20201;-88
2023/03/16 02:03:38;;;;;;;16.53;11.47;;;0.00;89.10;;;;;;4959199;28;20225;-89
2023/03/16 02:06:21;;;;;;;16.97;11.60;;;-0.10;89.20;;;;;;4959469;28;20196;-90
2023/03/16 02:08:48;;;;;;;18.83;13.47;;;0.00;89.20;;;;;;4959267;28;20193;-90
2023/03/16 02:11:18;;;;;;;20.10;11.97;;;-0.20;89.20;;;;;;4959357;28;20205;-90
2023/03/16 02:13:47;;;;;;;22.17;13.73;;;-0.10;89.40;;;;;;4959209;28;20209;-90
2023/03/16 02:16:18;;;;;;;16.17;12.03;;;-0.10;89.40;;;;;;4959135;28;20193;-90
2023/03/16 02:18:47;;;;;;;17.53;13.10;;;-0.10;89.40;;;;;;4960076;28;20189;-90
2023/03/16 02:21:46;;;;;;;22.83;14.60;;;0.00;89.40;;;;;;4959235;28;20256;-90
2023/03/16 02:24:11;;;;;;;14.50;13.10;;;0.00;89.30;;;;;;4959222;28;20290;-90
2023/03/16 02:26:58;;;;;;;17.87;13.73;;;0.00;89.20;;;;;;4959154;28;20213;-90
2023/03/16 02:29:52;;;;;;;17.80;14.93;;;0.00;89.20;;;;;;4959127;28;20181;-90
2023/03/16 02:32:20;;;;;;;20.80;14.40;;;0.00;89.00;;;;;;4959901;28;20179;-91
2023/03/16 02:34:45;;;;;;;19.40;13.33;;;0.00;89.10;;;;;;4959247;28;20202;-90
2023/03/16 02:37:11;;;;;;;15.37;13.57;;;-0.20;89.10;;;;;;4958944;28;20664;-89
2023/03/16 02:39:37;;;;;;;18.97;13.37;;;-0.20;89.30;;;;;;4958996;28;20229;-90
2023/03/16 02:42:03;;;;;;;18.80;13.20;;;-0.20;89.50;;;;;;4959361;28;20212;-90
2023/03/16 02:44:39;;;;;;;20.93;14.47;;;-0.20;89.50;;;;;;4959420;28;20252;-90
2023/03/16 02:47:10;;;;;;;15.33;13.73;;;-0.10;89.60;;;;;;4959505;28;20181;-90
2023/03/16 02:49:40;;;;;;;26.93;13.57;;;-0.10;89.50;;;;;;4959454;28;20182;-90
2023/03/16 02:52:07;;;;;;;26.37;14.30;;;-0.10;89.50;;;;;;4958659;28;20185;-90
2023/03/16 02:54:33;;;;;;;18.10;13.00;;;-0.10;89.40;;;;;;4958703;28;20209;-90
2023/03/16 02:56:58;;;;;;;16.20;13.07;;;-0.10;89.40;;;;;;4958888;28;20186;-90
2023/03/16 02:59:24;;;;;;;22.77;15.60;;;-0.10;89.40;;;;;;4958465;28;20735;-90
2023/03/16 03:01:50;;;;;;;14.73;13.17;;;-0.10;89.50;;;;;;4958416;28;20216;-91
2023/03/16 03:04:16;;;;;;;14.90;13.40;;;-0.10;89.30;;;;;;4958522;28;20205;-90
2023/03/16 03:06:42;;;;;;;19.07;11.70;;;-0.10;89.30;;;;;;4958417;28;20189;-90
2023/03/16 03:09:10;;;;;;;15.30;12.40;;;-0.20;89.20;;;;;;4958216;28;20186;-90
2023/03/16 03:11:36;;;;;;;23.43;14.07;;;-0.20;89.20;;;;;;4958335;28;20192;-90
2023/03/16 03:14:02;;;;;;;12.77;11.30;;;-0.30;89.30;;;;;;4958196;28;20260;-90
2023/03/16 03:16:28;;;;;;;16.33;12.27;;;-0.30;89.30;;;;;;4958289;28;20628;-90
2023/03/16 03:18:54;;;;;;;18.40;12.30;;;-0.20;89.30;;;;;;4958282;28;20193;-90
2023/03/16 03:21:20;;;;;;;16.83;12.63;;;-0.20;89.30;;;;;;4958131;28;20609;-90
2023/03/16 03:23:46;;;;;;;13.17;11.47;;;-0.30;89.20;;;;;;4957967;28;20341;-90
2023/03/16 03:26:14;;;;;;;12.93;11.63;;;-0.30;89.20;;;;;;4957927;28;20260;-90
2023/03/16 03:28:40;;;;;;;14.43;11.67;;;-0.30;89.30;;;;;;4957888;28;20227;-90
2023/03/16 03:31:06;;;;;;;12.27;11.00;;;-0.30;89.30;;;;;;4958683;28;20200;-90
2023/03/16 03:33:32;;;;;;;12.80;11.40;;;-0.30;89.30;;;;;;4957878;28;20664;-90
2023/03/16 03:36:00;;;;;;;14.93;12.63;;;-0.20;89.30;;;;;;4957963;28;20672;-90
2023/03/16 03:38:26;;;;;;;14.53;12.43;;;-0.10;89.20;;;;;;4957663;28;20188;-90
2023/03/16 03:40:53;;;;;;;15.93;11.90;;;-0.10;89.00;;;;;;4957618;28;20180;-90
2023/03/16 03:43:19;;;;;;;14.97;12.13;;;-0.10;88.90;;;;;;4957537;28;20189;-90
2023/03/16 03:45:45;;;;;;;12.23;10.93;;;0.00;88.90;;;;;;4958582;28;20182;-90
2023/03/16 03:48:10;;;;;;;16.10;11.80;;;-0.10;88.60;;;;;;4957711;28;20240;-90
2023/03/16 03:50:37;;;;;;;16.10;11.80;;;0.00;88.70;;;;;;4957580;28;20182;-90
2023/03/16 03:53:03;;;;;;;13.20;11.77;;;0.00;88.50;;;;;;4957693;28;20186;-90
2023/03/16 03:55:29;;;;;;;16.40;11.20;;;0.00;88.50;;;;;;4957762;28;20212;-90
2023/03/16 03:57:55;;;;;;;17.63;10.87;;;0.00;88.40;;;;;;4957844;28;20179;-90
2023/03/16 04:00:21;;;;;;;20.77;11.97;;;0.00;88.30;;;;;;4957483;28;20273;-90
2023/03/16 04:02:47;;;;;;;12.87;10.73;;;-0.10;88.10;;;;;;4958349;28;20212;-90
2023/03/16 04:05:13;;;;;;;15.30;11.87;;;-0.10;88.30;;;;;;4957949;28;20297;-90
2023/03/16 04:07:39;;;;;;;14.07;11.00;;;-0.10;88.20;;;;;;4958386;28;20218;-90
2023/03/16 04:10:06;;;;;;;18.10;11.57;;;0.00;88.10;;;;;;4957479;28;20201;-90
2023/03/16 04:12:31;;;;;;;12.87;10.90;;;0.00;88.00;;;;;;4957841;28;20190;-90
2023/03/16 04:14:57;;;;;;;11.90;10.60;;;-0.10;87.90;;;;;;4957328;28;20671;-90
2023/03/16 04:17:23;;;;;;;12.37;9.90;;;0.00;87.80;;;;;;4958429;28;20193;-90
2023/03/16 04:19:48;;;;;;;15.70;11.43;;;-0.10;87.70;;;;;;4957421;28;20186;-90
2023/03/16 04:22:14;;;;;;;12.73;11.30;;;-0.10;87.70;;;;;;4957193;28;20715;-90
2023/03/16 04:24:41;;;;;;;15.00;13.40;;;0.00;87.80;;;;;;4957233;28;20205;-90
2023/03/16 04:27:08;;;;;;;17.03;11.93;;;0.00;87.60;;;;;;4958716;28;20232;-90
2023/03/16 04:29:33;;;;;;;12.80;11.60;;;-0.10;87.50;;;;;;4961062;28;20209;-90
2023/03/16 04:31:59;;;;;;;13.27;12.00;;;-0.10;87.40;;;;;;4961147;28;20641;-90
2023/03/16 04:34:25;;;;;;;13.17;11.83;;;-0.10;87.30;;;;;;4961480;28;20301;-90
2023/03/16 04:36:53;;;;;;;13.60;11.60;;;-0.10;87.30;;;;;;4961133;28;20181;-90
2023/03/16 04:39:21;;;;;;;12.20;11.03;;;-0.10;87.20;;;;;;4961351;28;20660;-90
2023/03/16 04:41:48;;;;;;;15.50;12.63;;;-0.10;87.20;;;;;;4961110;28;20213;-90
2023/03/16 04:44:13;;;;;;;14.40;11.70;;;-0.10;87.10;;;;;;4960911;28;20201;-90
2023/03/16 04:46:39;;;;;;;15.87;10.83;;;-0.10;87.00;;;;;;4961073;28;20187;-90
2023/03/16 04:49:08;;;;;;;15.60;11.37;;;-0.10;86.80;;;;;;4960925;28;20185;-90
2023/03/16 04:51:37;;;;;;;12.90;11.00;;;-0.10;86.70;;;;;;4960632;28;20665;-90
2023/03/16 04:54:03;;;;;;;12.50;11.20;;;-0.10;86.70;;;;;;4961488;28;20212;-90
2023/03/16 04:56:29;;;;;;;13.23;10.93;;;-0.10;86.70;;;;;;4960722;28;20182;-90
2023/03/16 04:58:55;;;;;;;12.57;11.37;;;0.00;86.50;;;;;;4960743;28;20192;-91
2023/03/16 05:01:21;;;;;;;13.77;12.33;;;-0.10;86.40;;;;;;4960715;28;20211;-90
2023/03/16 05:03:48;;;;;;;14.63;12.47;;;-0.10;86.40;;;;;;4960645;28;20285;-90
2023/03/16 05:06:14;;;;;;;14.77;11.00;;;-0.10;86.50;;;;;;4960495;28;20186;-90
2023/03/16 05:08:40;;;;;;;13.20;11.33;;;-0.10;86.50;;;;;;4960981;28;20208;-90
2023/03/16 05:11:05;;;;;;;12.50;11.43;;;0.00;86.50;;;;;;4960766;28;20199;-90
2023/03/16 05:13:31;;;;;;;13.37;11.97;;;0.00;86.40;;;;;;4960625;28;20197;-90
2023/03/16 05:15:57;;;;;;;13.13;12.00;;;0.00;86.30;;;;;;4960735;28;20176;-91
2023/03/16 05:18:22;;;;;;;17.83;12.57;;;0.00;86.30;;;;;;4960743;28;20708;-91
2023/03/16 05:20:52;;;;;;;15.60;12.80;;;0.00;86.20;;;;;;4960818;28;20186;-90
2023/03/16 05:23:19;;;;;;;13.80;12.40;;;-0.10;86.20;;;;;;4960413;28;20295;-91
2023/03/16 05:25:48;;;;;;;17.77;12.73;;;-0.10;86.30;;;;;;4960270;28;20184;-90
2023/03/16 05:28:14;;;;;;;13.57;11.20;;;0.00;86.20;;;;;;4960306;28;20186;-91
2023/03/16 05:30:41;;;;;;;21.67;13.07;;;0.00;86.20;;;;;;4960172;28;20269;-91
2023/03/16 05:33:07;;;;;;;11.93;10.47;;;0.00;86.20;;;;;;4960666;28;20186;-90
2023/03/16 05:35:33;;;;;;;12.17;10.97;;;0.00;86.20;;;;;;4960123;28;20197;-91
2023/03/16 05:37:59;;;;;;;13.97;12.50;;;0.00;86.20;;;;;;4959733;28;20239;-90
2023/03/16 05:40:25;;;;;;;15.70;12.77;;;0.10;86.20;;;;;;4959567;28;20602;-90
2023/03/16 05:42:55;;;;;;;17.07;13.37;;;0.10;86.10;;;;;;4960442;28;20287;-90
2023/03/16 05:45:20;;;;;;;14.60;12.83;;;0.10;86.20;;;;;;4959948;28;20194;-91
2023/03/16 05:47:46;;;;;;;21.47;12.53;;;0.20;86.20;;;;;;4960208;28;20289;-91
2023/03/16 05:50:13;;;;;;;15.67;12.90;;;0.30;86.10;;;;;;4960234;28;20189;-90
2023/03/16 05:52:39;;;;;;;18.73;12.87;;;0.30;86.00;;;;;;4960030;28;20641;-90
2023/03/16 05:55:07;;;;;;;13.40;12.27;;;0.30;86.00;;;;;;4959785;28;20205;-90
2023/03/16 05:57:33;;;;;;;16.77;13.47;;;0.30;85.90;;;;;;4959777;28;20186;-90
2023/03/16 06:00:00;;;;;;;13.60;12.40;;;0.40;85.80;;;;;;4959779;28;20719;-91
2023/03/16 06:02:26;;;;;;;14.23;12.67;;;0.40;85.80;;;;;;4959540;28;20288;-91
2023/03/16 06:04:52;;;;;;;14.67;12.47;;;0.50;85.80;;;;;;4959930;28;20258;-90
2023/03/16 06:07:18;;;;;;;14.23;12.03;;;0.50;85.70;;;;;;4959796;28;20672;-91
2023/03/16 06:09:43;;;;;;;16.23;11.93;;;0.60;85.60;;;;;;4959569;28;20259;-91
2023/03/16 06:12:09;;;;;;;13.90;12.47;;;0.60;85.40;;;;;;4960465;28;20197;-91
2023/03/16 06:14:35;;;;;;;16.80;11.80;;;0.60;85.20;;;;;;4960018;28;20205;-91
2023/03/16 06:17:01;;;;;;;15.90;12.77;;;0.70;85.10;;;;;;4959794;28;20280;-91
2023/03/16 06:19:29;;;;;;;16.73;12.73;;;0.70;85.00;;;;;;4960238;28;20208;-91
2023/03/16 06:21:54;;;;;;;18.37;12.47;;;0.80;85.10;;;;;;4959858;28;20205;-91
2023/03/16 06:24:20;;;;;;;15.53;11.73;;;0.70;85.00;;;;;;4960184;28;20548;-91
2023/03/16 06:26:46;;;;;;;16.43;12.43;;;0.70;84.90;;;;;;4960240;28;20186;-91
2023/03/16 06:29:11;;;;;;;14.23;12.77;;;0.80;84.90;;;;;;4960035;28;20664;-91
2023/03/16 06:31:37;;;;;;;16.63;12.83;;;0.70;84.80;;;;;;4960462;28;20206;-91
2023/03/16 06:34:03;;;;;;;12.67;11.50;;;0.80;84.80;;;;;;4960861;28;20209;-91
2023/03/16 06:36:32;;;;;;;22.07;12.97;;;0.80;84.70;;;;;;4960237;28;20232;-91
2023/03/16 06:38:58;;;;;;;14.87;13.17;;;0.80;84.60;;;;;;4959904;28;20240;-91
2023/03/16 06:41:24;;;;;;;16.07;13.63;;;0.90;84.50;;;;;;4959829;28;20303;-91
2023/03/16 06:43:49;;;;;;;21.37;14.43;;;1.00;84.50;;;;;;4959928;28;20197;-91
2023/03/16 06:46:15;;;;;;;19.63;13.40;;;1.00;84.40;;;;;;4959667;28;20177;-91
2023/03/16 06:48:40;;;;;;;14.57;13.23;;;1.00;84.40;;;;;;4960448;28;20324;-91
2023/03/16 06:51:06;;;;;;;14.83;13.37;;;1.10;84.40;;;;;;4959503;28;20182;-89
2023/03/16 06:53:32;;;;;;;20.73;14.10;;;1.10;84.50;;;;;;4959613;28;20580;-91
2023/03/16 06:55:58;;;;;;;17.80;13.37;;;1.10;84.70;;;;;;4959986;28;20186;-91
2023/03/16 06:58:23;;;;;;;17.63;15.87;;;1.10;84.70;;;;;;4960253;28;20183;-92
2023/03/16 07:00:49;;;;;;;15.40;14.00;;;1.20;84.70;;;;;;4960232;28;20193;-91
2023/03/16 07:03:15;;;;;;;15.77;14.40;;;1.10;84.80;;;;;;4960344;28;20306;-91
2023/03/16 07:05:40;;;;;;;15.97;14.33;;;1.10;85.00;;;;;;4959399;28;20186;-91
2023/03/16 07:08:06;;;;;;;15.40;13.67;;;1.20;85.00;;;;;;4959958;28;20235;-92
2023/03/16 07:10:33;;;;;;;15.03;13.80;;;1.30;84.90;;;;;;4959468;28;20277;-91
2023/03/16 07:12:58;;;;;;;15.37;13.87;;;1.30;84.80;;;;;;4960822;28;20186;-91
2023/03/16 07:15:25;;;;;;;17.60;14.07;;;1.30;84.50;;;;;;4959220;28;20230;-91
2023/03/16 07:17:51;;;;;;;15.57;14.10;;;1.30;84.20;;;;;;4960232;28;20533;-91
2023/03/16 07:20:17;;;;;;;15.87;14.23;;;1.40;84.10;;;;;;4960698;28;20207;-92
2023/03/16 07:22:43;;;;;;;15.80;14.30;;;1.40;84.10;;;;;;4960457;28;20202;-91
2023/03/16 07:25:10;;;;;;;23.03;14.40;;;1.50;84.10;;;;;;4960806;28;20213;-91
2023/03/16 07:27:36;;;;;;;16.47;13.83;;;1.60;84.00;;;;;;4961142;28;20189;-91
2023/03/16 07:30:04;;;;;;;17.07;15.30;;;1.70;83.80;;;;;;4960485;28;20178;-92
2023/03/16 07:32:31;;;;;;;21.00;15.33;;;1.80;83.50;;;;;;4959800;28;20222;-91
2023/03/16 07:34:57;;;;;;;21.33;15.13;;;1.80;83.20;;;;;;4960102;28;20202;-91
2023/03/16 07:37:23;;;;;;;17.53;15.67;;;1.90;83.00;;;;;;4960024;28;20178;-91
2023/03/16 07:39:49;;;;;;;15.97;14.30;;;2.00;82.80;;;;;;4959551;28;20178;-91
2023/03/16 07:42:15;;;;;;;21.53;15.67;;;2.10;82.90;;;;;;4959836;28;20796;-92
2023/03/16 07:44:40;;;;;;;17.70;15.83;;;2.30;82.80;;;;;;4958989;28;20199;-91
2023/03/16 07:47:18;;;;;;;20.17;14.57;;;2.30;82.50;;;;;;4963891;28;20229;-91
2023/03/16 07:49:43;;;;;;;16.40;13.30;;;2.40;82.20;;;;;;4972010;28;20183;-91
2023/03/16 07:52:12;;;;;;;33.03;15.27;;;2.50;81.60;;;;;;4967503;28;20269;-90
2023/03/16 07:54:40;;;;;;;22.13;14.73;;;2.50;81.00;;;;;;4964507;28;20213;-91
2023/03/16 07:57:07;;;;;;;16.73;15.03;;;2.60;80.00;;;;;;4963066;28;20187;-91
2023/03/16 08:00:04;;;;;;;16.80;14.53;;;2.70;80.00;;;;;;4963203;28;20186;-92
2023/03/16 08:02:30;;;;;;;14.93;13.37;;;2.70;79.50;;;;;;4960277;28;20214;-91
2023/03/16 08:05:00;;;;;;;16.07;14.60;;;2.90;77.40;;;;;;4966901;28;20271;-91
2023/03/16 08:36:42;;;;;;;18.30;16.50;;;3.80;75.30;;;;;;4977880;28;20212;-91
2023/03/16 08:52:42;;;;;;;22.10;20.43;;;4.50;75.30;;;;;;4946306;23;20242;-90
2023/03/16 09:08:30;;;;;;;21.23;19.77;;;5.10;70.50;;;;;;4978355;28;20172;-90
2023/03/16 09:14:27;;;;;;;22.93;21.43;;;5.40;71.20;;;;;;4904748;29;20312;-93
2023/03/16 09:17:47;;;;;;;22.77;20.87;;;5.50;69.10;;;;;;4955358;28;20747;-93
2023/03/16 09:20:33;;;;;;;24.27;22.37;;;5.80;69.10;;;;;;4884183;29;20198;-92
2023/03/16 09:26:32;;;;;;;26.20;23.90;;;5.80;66.80;;;;;;4846583;29;20308;-93
2023/03/16 09:29:26;;;;;;;24.00;22.20;;;6.00;66.60;;;;;;4833796;29;20689;-91
2023/03/16 09:32:24;;;;;;;25.67;23.70;;;6.20;66.50;;;;;;4835618;29;20191;-92
2023/03/16 09:34:59;;;;;;;27.47;25.40;;;6.30;66.00;;;;;;4847698;29;20210;-93
2023/03/16 09:37:30;;;;;;;26.70;24.90;;;6.30;64.20;;;;;;4909029;28;20281;-92
2023/03/16 09:39:55;;;;;;;26.93;24.43;;;6.30;64.20;;;;;;4977519;28;20166;-91
2023/03/16 09:42:42;;;;;;;26.33;24.17;;;6.40;65.50;;;;;;4959949;28;20203;-91
2023/03/16 09:59:31;;;;;;;21.13;19.60;;;6.80;63.30;;;;;;4845894;29;20179;-93
2023/03/16 10:02:50;;;;;;;21.13;19.53;;;6.80;61.90;;;;;;4829751;29;20207;-92
2023/03/16 10:18:06;;;;;;;20.87;19.37;;;7.10;60.80;;;;;;5136241;23;20238;-91
2023/03/16 10:21:04;;;;;;;20.87;19.27;;;7.10;59.50;;;;;;4967201;28;20212;-90
2023/03/16 11:08:40;;;;;;;18.67;17.23;;;8.30;55.00;;;;;;4955877;29;20293;-89
2023/03/16 11:11:39;;;;;;;18.63;17.37;;;8.30;52.40;;;;;;4957044;29;20180;-92
2023/03/16 11:19:46;;;;;;;18.60;17.27;;;8.50;51.70;;;;;;4957269;29;20218;-90
2023/03/16 11:22:16;;;;;;;20.67;19.33;;;8.50;54.60;;;;;;4957554;28;20207;-90
2023/03/16 11:25:01;;;;;;;20.87;19.43;;;8.60;53.10;;;;;;4932899;29;20210;-90
2023/03/16 11:28:17;;;;;;;20.40;19.03;;;8.50;50.90;;;;;;4942209;29;20179;-92
2023/03/16 11:31:04;;;;;;;24.17;18.83;;;8.40;52.00;;;;;;4859429;29;20198;-91
2023/03/16 11:33:34;;;;;;;20.80;19.30;;;8.60;52.00;;;;;;4862087;29;20214;-90
2023/03/16 11:36:16;;;;;;;20.10;18.60;;;8.70;50.90;;;;;;4938283;28;20619;-91
2023/03/16 11:39:20;;;;;;;19.20;17.67;;;8.90;50.30;;;;;;4940458;29;20708;-90
2023/03/16 11:42:20;;;;;;;19.27;17.77;;;9.00;51.90;;;;;;4949737;29;20274;-90
2023/03/16 11:44:49;;;;;;;19.60;18.23;;;8.90;50.90;;;;;;4942328;29;20198;-91
2023/03/16 11:47:52;;;;;;;20.40;18.37;;;8.90;50.30;;;;;;4942010;29;20175;-90
2023/03/16 11:54:29;;;;;;;18.33;17.03;;;8.90;49.60;;;;;;4857741;29;20206;-91
2023/03/16 11:57:19;;;;;;;18.27;17.03;;;8.90;49.00;;;;;;4864163;29;20187;-91
2023/03/16 12:00:27;;;;;;;17.17;15.97;;;9.00;47.50;;;;;;4861966;29;20179;-91
2023/03/16 12:06:19;;;;;;;18.63;17.43;;;9.00;48.70;;;;;;5429579;23;20233;-92
2023/03/16 12:09:22;;;;;;;20.67;19.27;;;9.00;48.00;;;;;;4984288;28;20201;-90
2023/03/16 12:11:56;;;;;;;21.33;19.57;;;9.10;48.20;;;;;;4978352;28;20177;-91
2023/03/16 12:14:36;;;;;;;20.87;19.47;;;9.20;46.00;;;;;;4978604;28;20248;-90
2023/03/16 12:17:24;;;;;;;20.33;18.97;;;9.20;47.30;;;;;;4977668;28;20177;-90
2023/03/16 12:20:15;;;;;;;20.60;19.20;;;9.30;47.20;;;;;;4978406;28;20170;-91
2023/03/16 12:23:22;;;;;;;20.73;19.20;;;9.50;48.40;;;;;;4984079;28;20192;-91
2023/03/16 12:25:49;;;;;;;21.33;19.67;;;9.60;48.30;;;;;;4937875;28;20679;-91
2023/03/16 12:28:27;;;;;;;20.80;19.40;;;9.70;48.40;;;;;;5026589;23;20223;-92
2023/03/16 12:31:15;;;;;;;21.00;19.50;;;9.70;48.40;;;;;;4959760;29;20671;-91
2023/03/16 12:33:52;;;;;;;22.23;20.33;;;9.40;47.70;;;;;;4940979;29;20196;-91
2023/03/16 12:36:34;;;;;;;21.30;19.60;;;9.50;46.70;;;;;;4942463;29;20199;-91
2023/03/16 12:39:22;;;;;;;21.67;20.10;;;9.60;45.50;;;;;;4944511;29;20194;-91
2023/03/16 12:42:08;;;;;;;22.90;20.90;;;9.70;44.70;;;;;;4952626;28;20274;-91
2023/03/16 12:45:20;;;;;;;23.53;21.07;;;9.50;44.90;;;;;;4961832;28;20211;-89
2023/03/16 12:48:06;;;;;;;26.37;23.13;;;9.30;45.90;;;;;;4940707;28;20170;-91
2023/03/16 12:50:31;;;;;;;22.50;20.53;;;9.30;44.30;;;;;;4986348;28;20178;-91
2023/03/16 12:52:57;;;;;;;22.23;20.60;;;9.30;47.00;;;;;;4986612;28;20159;-91
2023/03/16 12:55:23;;;;;;;22.03;20.33;;;9.30;44.00;;;;;;4984867;28;20178;-91
2023/03/16 12:57:57;;;;;;;20.63;19.23;;;9.30;42.70;;;;;;4984870;28;20183;-91
2023/03/16 13:00:36;;;;;;;20.73;19.23;;;9.40;43.90;;;;;;4983354;28;20147;-91
2023/03/16 13:03:04;;;;;;;19.83;18.43;;;9.50;46.80;;;;;;4982844;28;20198;-91
2023/03/16 13:05:42;;;;;;;21.00;19.50;;;9.40;45.70;;;;;;4983254;28;20218;-91
2023/03/16 13:08:12;;;;;;;21.80;20.10;;;9.40;42.80;;;;;;4984136;28;20174;-91
2023/03/16 13:10:38;;;;;;;20.87;19.43;;;9.40;42.30;;;;;;4984184;28;20190;-90
2023/03/16 13:13:16;;;;;;;21.60;20.07;;;9.40;43.40;;;;;;4983477;28;20189;-91
2023/03/16 13:15:46;;;;;;;21.13;19.63;;;9.40;45.50;;;;;;4985759;28;20190;-91
2023/03/16 13:18:15;;;;;;;20.87;19.30;;;9.50;47.60;;;;;;4985662;28;20151;-91
2023/03/16 13:20:57;;;;;;;21.53;19.93;;;9.40;46.30;;;;;;4985468;28;20163;-91
2023/03/16 13:23:45;;;;;;;21.70;19.87;;;9.50;49.00;;;;;;4985847;28;20203;-92
2023/03/16 13:26:26;;;;;;;21.17;19.63;;;9.40;47.30;;;;;;4985527;28;20159;-91
2023/03/16 13:28:54;;;;;;;19.73;18.53;;;9.30;44.30;;;;;;4985019;28;20198;-91
2023/03/16 13:31:48;;;;;;;22.80;20.90;;;9.20;46.60;;;;;;4985352;28;20201;-92
2023/03/16 13:34:20;;;;;;;22.07;20.43;;;9.00;44.90;;;;;;4983482;28;20182;-91
2023/03/16 13:36:46;;;;;;;22.23;20.53;;;9.00;45.50;;;;;;4985547;28;20167;-91
2023/03/16 13:39:19;;;;;;;20.73;19.13;;;9.00;46.40;;;;;;4985767;28;20195;-91
2023/03/16 13:42:17;;;;;;;21.70;20.07;;;8.90;48.30;;;;;;4985730;28;20179;-91
2023/03/16 13:44:43;;;;;;;21.20;19.50;;;9.00;47.50;;;;;;4985813;28;20205;-91
2023/03/16 13:47:16;;;;;;;21.37;19.93;;;9.00;48.00;;;;;;4985869;28;20190;-91
2023/03/16 13:49:56;;;;;;;18.87;17.13;;;8.80;46.40;;;;;;4985635;28;20151;-91
2023/03/16 13:52:33;;;;;;;17.97;16.67;;;8.90;47.20;;;;;;4985271;28;20151;-92
2023/03/16 13:55:02;;;;;;;21.83;20.33;;;8.70;47.90;;;;;;4984664;28;20190;-92
2023/03/16 13:57:34;;;;;;;21.10;19.70;;;8.70;50.10;;;;;;4984849;28;20242;-92
2023/03/16 14:00:31;;;;;;;21.20;19.60;;;8.70;48.10;;;;;;4983595;28;20178;-92
2023/03/16 14:02:58;;;;;;;20.90;19.33;;;8.60;48.30;;;;;;4982225;28;20205;-92
2023/03/16 14:05:27;;;;;;;20.40;19.10;;;8.50;46.80;;;;;;4984256;28;20187;-92
2023/03/16 14:07:55;;;;;;;22.60;21.10;;;8.60;46.00;;;;;;4984860;28;20199;-91
2023/03/16 14:10:23;;;;;;;23.07;21.37;;;8.50;47.50;;;;;;4984912;28;20155;-91
2023/03/16 14:12:56;;;;;;;24.67;22.57;;;8.60;45.30;;;;;;4984704;28;20242;-91
2023/03/16 14:15:26;;;;;;;23.53;21.93;;;8.50;45.10;;;;;;4984668;28;20182;-92
2023/03/16 14:17:52;;;;;;;24.30;22.47;;;8.60;46.80;;;;;;4984251;28;20171;-92
2023/03/16 14:20:29;;;;;;;26.20;24.10;;;8.70;47.00;;;;;;4985141;28;20167;-90
2023/03/16 14:22:55;;;;;;;23.20;21.33;;;8.80;48.30;;;;;;4985051;28;20190;-91
2023/03/16 14:25:26;;;;;;;22.73;21.23;;;8.80;46.30;;;;;;4984291;28;20190;-92
2023/03/16 14:28:01;;;;;;;22.63;21.13;;;9.10;44.50;;;;;;4984903;28;20191;-91
2023/03/16 14:30:29;;;;;;;22.50;20.90;;;9.20;45.30;;;;;;4984790;28;20186;-92
2023/03/16 14:33:04;;;;;;;22.30;20.70;;;9.20;45.80;;;;;;4984962;28;20215;-91
2023/03/16 14:35:41;;;;;;;22.27;20.50;;;9.30;47.00;;;;;;4984506;28;20197;-91
2023/03/16 14:38:35;;;;;;;22.67;21.20;;;9.20;45.30;;;;;;4983862;28;20167;-91
2023/03/16 14:41:14;;;;;;;22.57;21.00;;;9.00;45.40;;;;;;4984402;28;20167;-92
2023/03/16 14:43:49;;;;;;;22.17;20.73;;;9.00;45.60;;;;;;4984309;28;20244;-93
2023/03/16 14:46:28;;;;;;;22.97;21.20;;;9.10;44.90;;;;;;4975130;28;20190;-92
2023/03/16 14:49:09;;;;;;;20.67;19.10;;;9.20;44.80;;;;;;4960507;28;20198;-91
2023/03/16 14:51:38;;;;;;;17.43;16.07;;;9.30;44.50;;;;;;4959375;28;20254;-91
2023/03/16 14:54:20;;;;;;;17.60;16.23;;;9.20;46.00;;;;;;4966358;28;20270;-92
2023/03/16 14:56:52;;;;;;;17.00;15.77;;;9.30;45.40;;;;;;4960920;28;20645;-90
2023/03/16 14:59:17;;;;;;;17.20;15.80;;;9.10;45.30;;;;;;4958642;28;20215;-89
2023/03/16 15:01:50;;;;;;;17.40;16.13;;;9.20;44.90;;;;;;4958722;28;20314;-91
2023/03/16 15:04:22;;;;;;;17.47;16.17;;;9.10;45.30;;;;;;4960789;28;20677;-90
2023/03/16 15:06:48;;;;;;;16.37;15.27;;;9.00;45.70;;;;;;4959451;28;20253;-90
2023/03/16 15:09:39;;;;;;;17.30;16.10;;;9.10;45.70;;;;;;4975641;28;20258;-90
2023/03/16 15:12:21;;;;;;;17.53;16.23;;;9.20;45.90;;;;;;4957521;28;20266;-90
2023/03/16 15:17:31;;;;;;;17.57;16.20;;;9.20;46.10;;;;;;4976071;28;20190;-91
2023/03/16 15:19:57;;;;;;;17.50;16.00;;;9.10;44.60;;;;;;4958102;28;20182;-91
2023/03/16 15:22:42;;;;;;;16.93;15.63;;;9.00;46.50;;;;;;4958142;28;20205;-89
2023/03/16 15:25:24;;;;;;;17.00;15.73;;;9.00;45.70;;;;;;4958314;28;20222;-90
2023/03/16 15:27:51;;;;;;;20.57;18.27;;;9.10;47.60;;;;;;4958025;28;20183;-91